sensor_id;sensor_type;location;lat;lon;timestamp;temperature;humidity
28947;DHT22;16052;50.930;5.326;2023-05-20T00:01:58;17.80;99.90
28947;DHT22;16052;50.930;5.326;2023-05-20T00:04:24;17.70;99.90
28947;DHT22;16052;50.930;5.326;2023-05-20T00:06:50;17.80;99.90
28947;DHT22;16052;50.930;5.326;2023-05-20T00:09:15;17.80;99.90
28947;DHT22;16052;50.930;5.326;2023-05-20T00:11:41;17.60;99.90
28947;DHT22;16052;50.930;5.326;2023-05-20T00:14:08;17.60;99.90
28947;DHT22;16052;50.930;5.326;2023-05-20T00:16:33;17.60;99.90
28947;DHT22;16052;50.930;5.326;2023-05-20T00:18:59;17.60;99.90
28947;DHT22;16052;50.930;5.326;2023-05-20T00:21:25;17.50;99.90
28947;DHT22;16052;50.930;5.326;2023-05-20T00:23:50;17.60;99.90
28947;DHT22;16052;50.930;5.326;2023-05-20T00:26:16;17.60;99.90
28947;DHT22;16052;50.930;5.326;2023-05-20T00:28:42;17.70;99.90
28947;DHT22;16052;50.930;5.326;2023-05-20T00:31:08;17.70;99.90
28947;DHT22;16052;50.930;5.326;2023-05-20T00:33:34;17.70;99.90
28947;DHT22;16052;50.930;5.326;2023-05-20T00:36:00;17.70;99.90
28947;DHT22;16052;50.930;5.326;2023-05-20T00:38:26;17.60;99.90
28947;DHT22;16052;50.930;5.326;2023-05-20T00:40:52;17.40;99.90
28947;DHT22;16052;50.930;5.326;2023-05-20T00:43:17;17.40;99.90
28947;DHT22;16052;50.930;5.326;2023-05-20T00:45:45;17.30;99.90
28947;DHT22;16052;50.930;5.326;2023-05-20T00:48:12;17.20;99.90
28947;DHT22;16052;50.930;5.326;2023-05-20T00:50:38;17.20;99.90
28947;DHT22;16052;50.930;5.326;2023-05-20T00:53:05;17.20;99.90
28947;DHT22;16052;50.930;5.326;2023-05-20T00:55:31;17.30;99.90
28947;DHT22;16052;50.930;5.326;2023-05-20T00:57:57;17.40;99.90
28947;DHT22;16052;50.930;5.326;2023-05-20T01:00:23;17.40;99.90
28947;DHT22;16052;50.930;5.326;2023-05-20T01:02:48;17.20;99.90
28947;DHT22;16052;50.930;5.326;2023-05-20T01:05:14;17.20;99.90
28947;DHT22;16052;50.930;5.326;2023-05-20T01:07:40;17.10;99.90
28947;DHT22;16052;50.930;5.326;2023-05-20T01:10:07;17.30;99.90
28947;DHT22;16052;50.930;5.326;2023-05-20T01:12:41;17.20;99.90
28947;DHT22;16052;50.930;5.326;2023-05-20T01:15:09;17.10;99.90
28947;DHT22;16052;50.930;5.326;2023-05-20T01:17:43;17.00;99.90
28947;DHT22;16052;50.930;5.326;2023-05-20T01:20:12;17.00;99.90
28947;DHT22;16052;50.930;5.326;2023-05-20T01:22:46;17.10;99.90
28947;DHT22;16052;50.930;5.326;2023-05-20T01:25:12;17.00;99.90
28947;DHT22;16052;50.930;5.326;2023-05-20T01:27:38;17.00;99.90
28947;DHT22;16052;50.930;5.326;2023-05-20T01:30:04;16.90;99.90
28947;DHT22;16052;50.930;5.326;2023-05-20T01:32:37;16.80;99.90
28947;DHT22;16052;50.930;5.326;2023-05-20T01:35:05;16.80;99.90
28947;DHT22;16052;50.930;5.326;2023-05-20T01:37:31;16.80;99.90
28947;DHT22;16052;50.930;5.326;2023-05-20T01:39:59;16.80;99.90
28947;DHT22;16052;50.930;5.326;2023-05-20T01:42:27;16.70;99.90
28947;DHT22;16052;50.930;5.326;2023-05-20T01:44:53;16.70;99.90
28947;DHT22;16052;50.930;5.326;2023-05-20T01:47:19;16.70;99.90
28947;DHT22;16052;50.930;5.326;2023-05-20T01:49:44;16.80;99.90
28947;DHT22;16052;50.930;5.326;2023-05-20T01:52:12;16.80;99.90
28947;DHT22;16052;50.930;5.326;2023-05-20T01:54:38;16.70;99.90
28947;DHT22;16052;50.930;5.326;2023-05-20T01:57:05;16.70;99.90
28947;DHT22;16052;50.930;5.326;2023-05-20T01:59:30;16.60;99.90
28947;DHT22;16052;50.930;5.326;2023-05-20T02:01:56;16.50;99.90
28947;DHT22;16052;50.930;5.326;2023-05-20T02:04:22;16.50;99.90
28947;DHT22;16052;50.930;5.326;2023-05-20T02:06:47;16.50;99.90
28947;DHT22;16052;50.930;5.326;2023-05-20T02:09:13;16.50;99.90
28947;DHT22;16052;50.930;5.326;2023-05-20T02:11:40;16.40;99.90
28947;DHT22;16052;50.930;5.326;2023-05-20T02:14:05;16.40;99.90
28947;DHT22;16052;50.930;5.326;2023-05-20T02:16:31;16.40;99.90
28947;DHT22;16052;50.930;5.326;2023-05-20T02:18:58;16.30;99.90
28947;DHT22;16052;50.930;5.326;2023-05-20T02:21:24;16.30;99.90
28947;DHT22;16052;50.930;5.326;2023-05-20T02:23:51;16.30;99.90
28947;DHT22;16052;50.930;5.326;2023-05-20T02:26:17;16.20;99.90
28947;DHT22;16052;50.930;5.326;2023-05-20T02:28:42;16.20;99.90
28947;DHT22;16052;50.930;5.326;2023-05-20T02:31:11;16.20;99.90
28947;DHT22;16052;50.930;5.326;2023-05-20T02:33:37;16.20;99.90
28947;DHT22;16052;50.930;5.326;2023-05-20T02:36:04;16.20;99.90
28947;DHT22;16052;50.930;5.326;2023-05-20T02:38:30;16.20;99.90
28947;DHT22;16052;50.930;5.326;2023-05-20T02:40:56;16.10;99.90
28947;DHT22;16052;50.930;5.326;2023-05-20T02:43:24;16.20;99.90
28947;DHT22;16052;50.930;5.326;2023-05-20T02:45:50;16.20;99.90
28947;DHT22;16052;50.930;5.326;2023-05-20T02:48:16;16.10;99.90
28947;DHT22;16052;50.930;5.326;2023-05-20T02:50:41;16.10;99.90
28947;DHT22;16052;50.930;5.326;2023-05-20T02:53:08;16.10;99.90
28947;DHT22;16052;50.930;5.326;2023-05-20T02:55:34;16.00;99.90
28947;DHT22;16052;50.930;5.326;2023-05-20T02:58:00;15.80;99.90
28947;DHT22;16052;50.930;5.326;2023-05-20T03:00:26;15.60;99.90
28947;DHT22;16052;50.930;5.326;2023-05-20T03:02:55;15.50;99.90
28947;DHT22;16052;50.930;5.326;2023-05-20T03:05:20;15.50;99.90
28947;DHT22;16052;50.930;5.326;2023-05-20T03:07:47;15.50;99.90
28947;DHT22;16052;50.930;5.326;2023-05-20T03:10:13;15.50;99.90
28947;DHT22;16052;50.930;5.326;2023-05-20T03:12:39;15.50;99.90
28947;DHT22;16052;50.930;5.326;2023-05-20T03:15:06;15.50;99.90
28947;DHT22;16052;50.930;5.326;2023-05-20T03:17:32;15.60;99.90
28947;DHT22;16052;50.930;5.326;2023-05-20T03:19:58;15.60;99.90
28947;DHT22;16052;50.930;5.326;2023-05-20T03:22:24;15.60;99.90
28947;DHT22;16052;50.930;5.326;2023-05-20T03:24:49;15.50;99.90
28947;DHT22;16052;50.930;5.326;2023-05-20T03:27:17;15.50;99.90
28947;DHT22;16052;50.930;5.326;2023-05-20T03:29:42;15.40;99.90
28947;DHT22;16052;50.930;5.326;2023-05-20T03:32:08;15.40;99.90
28947;DHT22;16052;50.930;5.326;2023-05-20T03:34:34;15.50;99.90
28947;DHT22;16052;50.930;5.326;2023-05-20T03:37:00;15.50;99.90
28947;DHT22;16052;50.930;5.326;2023-05-20T03:39:25;15.50;99.90
28947;DHT22;16052;50.930;5.326;2023-05-20T03:41:51;15.40;99.90
28947;DHT22;16052;50.930;5.326;2023-05-20T03:44:17;15.20;99.90
28947;DHT22;16052;50.930;5.326;2023-05-20T03:46:44;15.10;99.90
28947;DHT22;16052;50.930;5.326;2023-05-20T03:49:09;15.10;99.90
28947;DHT22;16052;50.930;5.326;2023-05-20T03:51:35;15.10;99.90
28947;DHT22;16052;50.930;5.326;2023-05-20T03:54:01;15.10;99.90
28947;DHT22;16052;50.930;5.326;2023-05-20T03:56:27;15.00;99.90
28947;DHT22;16052;50.930;5.326;2023-05-20T03:58:53;15.00;99.90
28947;DHT22;16052;50.930;5.326;2023-05-20T04:01:18;15.20;99.90
28947;DHT22;16052;50.930;5.326;2023-05-20T04:03:45;15.20;99.90
28947;DHT22;16052;50.930;5.326;2023-05-20T04:06:12;15.10;99.90
28947;DHT22;16052;50.930;5.326;2023-05-20T04:08:38;15.10;99.90
28947;DHT22;16052;50.930;5.326;2023-05-20T04:11:04;15.10;99.90
28947;DHT22;16052;50.930;5.326;2023-05-20T04:13:30;15.00;99.90
28947;DHT22;16052;50.930;5.326;2023-05-20T04:15:56;14.90;99.90
28947;DHT22;16052;50.930;5.326;2023-05-20T04:18:21;14.90;99.90
28947;DHT22;16052;50.930;5.326;2023-05-20T04:20:47;15.00;99.90
28947;DHT22;16052;50.930;5.326;2023-05-20T04:23:13;15.00;99.90
28947;DHT22;16052;50.930;5.326;2023-05-20T04:25:38;14.90;99.90
28947;DHT22;16052;50.930;5.326;2023-05-20T04:28:06;14.90;99.90
28947;DHT22;16052;50.930;5.326;2023-05-20T04:30:33;15.00;99.90
28947;DHT22;16052;50.930;5.326;2023-05-20T04:33:00;15.00;99.90
28947;DHT22;16052;50.930;5.326;2023-05-20T04:35:27;14.90;99.90
28947;DHT22;16052;50.930;5.326;2023-05-20T04:37:54;14.90;99.90
28947;DHT22;16052;50.930;5.326;2023-05-20T04:40:19;14.90;99.90
28947;DHT22;16052;50.930;5.326;2023-05-20T04:42:45;14.90;99.90
28947;DHT22;16052;50.930;5.326;2023-05-20T04:45:11;14.90;99.90
28947;DHT22;16052;50.930;5.326;2023-05-20T04:47:38;14.90;99.90
28947;DHT22;16052;50.930;5.326;2023-05-20T04:50:13;14.90;99.90
28947;DHT22;16052;50.930;5.326;2023-05-20T04:52:39;14.90;99.90
28947;DHT22;16052;50.930;5.326;2023-05-20T04:55:08;15.00;99.90
28947;DHT22;16052;50.930;5.326;2023-05-20T04:57:35;15.10;99.90
28947;DHT22;16052;50.930;5.326;2023-05-20T05:00:03;15.00;99.90
28947;DHT22;16052;50.930;5.326;2023-05-20T05:02:32;14.90;99.90
28947;DHT22;16052;50.930;5.326;2023-05-20T05:04:57;14.90;99.90
28947;DHT22;16052;50.930;5.326;2023-05-20T05:07:23;14.80;99.90
28947;DHT22;16052;50.930;5.326;2023-05-20T05:09:49;15.00;99.90
28947;DHT22;16052;50.930;5.326;2023-05-20T05:12:15;15.00;99.90
28947;DHT22;16052;50.930;5.326;2023-05-20T05:14:40;15.00;99.90
28947;DHT22;16052;50.930;5.326;2023-05-20T05:17:06;15.10;99.90
28947;DHT22;16052;50.930;5.326;2023-05-20T05:19:32;15.10;99.90
28947;DHT22;16052;50.930;5.326;2023-05-20T05:21:57;15.00;99.90
28947;DHT22;16052;50.930;5.326;2023-05-20T05:24:23;15.00;99.90
28947;DHT22;16052;50.930;5.326;2023-05-20T05:26:55;15.20;99.90
28947;DHT22;16052;50.930;5.326;2023-05-20T05:29:21;15.20;99.90
28947;DHT22;16052;50.930;5.326;2023-05-20T05:31:46;15.20;99.90
28947;DHT22;16052;50.930;5.326;2023-05-20T05:34:12;15.20;99.90
28947;DHT22;16052;50.930;5.326;2023-05-20T05:36:39;15.20;99.90
28947;DHT22;16052;50.930;5.326;2023-05-20T05:39:05;15.30;99.90
28947;DHT22;16052;50.930;5.326;2023-05-20T05:41:31;15.20;99.90
28947;DHT22;16052;50.930;5.326;2023-05-20T05:43:57;15.20;99.90
28947;DHT22;16052;50.930;5.326;2023-05-20T05:46:24;15.30;99.90
28947;DHT22;16052;50.930;5.326;2023-05-20T05:48:49;15.30;99.90
28947;DHT22;16052;50.930;5.326;2023-05-20T05:51:16;15.50;99.90
28947;DHT22;16052;50.930;5.326;2023-05-20T05:53:41;15.60;99.90
28947;DHT22;16052;50.930;5.326;2023-05-20T05:56:08;15.70;99.90
28947;DHT22;16052;50.930;5.326;2023-05-20T05:58:34;15.70;99.90
28947;DHT22;16052;50.930;5.326;2023-05-20T06:01:00;15.70;99.90
28947;DHT22;16052;50.930;5.326;2023-05-20T06:03:26;15.80;99.90
28947;DHT22;16052;50.930;5.326;2023-05-20T06:05:52;16.00;99.90
28947;DHT22;16052;50.930;5.326;2023-05-20T06:08:18;16.00;99.90
28947;DHT22;16052;50.930;5.326;2023-05-20T06:10:50;16.10;99.90
28947;DHT22;16052;50.930;5.326;2023-05-20T06:13:16;16.10;99.90
28947;DHT22;16052;50.930;5.326;2023-05-20T06:15:43;16.10;99.90
28947;DHT22;16052;50.930;5.326;2023-05-20T06:18:13;16.10;99.90
28947;DHT22;16052;50.930;5.326;2023-05-20T06:20:39;16.20;99.90
28947;DHT22;16052;50.930;5.326;2023-05-20T06:23:05;16.20;99.90
28947;DHT22;16052;50.930;5.326;2023-05-20T06:25:30;16.30;99.90
28947;DHT22;16052;50.930;5.326;2023-05-20T06:27:56;16.30;99.90
28947;DHT22;16052;50.930;5.326;2023-05-20T06:30:22;16.40;99.90
28947;DHT22;16052;50.930;5.326;2023-05-20T06:32:47;16.40;99.90
28947;DHT22;16052;50.930;5.326;2023-05-20T06:35:13;16.30;99.90
28947;DHT22;16052;50.930;5.326;2023-05-20T06:37:39;16.30;99.90
28947;DHT22;16052;50.930;5.326;2023-05-20T06:40:06;16.40;99.90
28947;DHT22;16052;50.930;5.326;2023-05-20T06:42:32;16.60;99.90
28947;DHT22;16052;50.930;5.326;2023-05-20T06:44:58;16.60;99.90
28947;DHT22;16052;50.930;5.326;2023-05-20T06:47:23;16.70;99.90
28947;DHT22;16052;50.930;5.326;2023-05-20T06:49:49;16.80;99.90
28947;DHT22;16052;50.930;5.326;2023-05-20T06:52:15;16.70;99.90
28947;DHT22;16052;50.930;5.326;2023-05-20T06:54:40;16.80;99.90
28947;DHT22;16052;50.930;5.326;2023-05-20T06:57:07;16.90;99.90
28947;DHT22;16052;50.930;5.326;2023-05-20T06:59:33;16.80;99.90
28947;DHT22;16052;50.930;5.326;2023-05-20T07:01:59;17.00;99.90
28947;DHT22;16052;50.930;5.326;2023-05-20T07:04:25;17.10;99.90
28947;DHT22;16052;50.930;5.326;2023-05-20T07:06:51;17.00;99.90
28947;DHT22;16052;50.930;5.326;2023-05-20T07:09:17;16.90;99.90
28947;DHT22;16052;50.930;5.326;2023-05-20T07:11:42;16.90;99.90
28947;DHT22;16052;50.930;5.326;2023-05-20T07:14:08;16.90;99.90
28947;DHT22;16052;50.930;5.326;2023-05-20T07:16:34;16.90;99.90
28947;DHT22;16052;50.930;5.326;2023-05-20T07:19:01;17.00;99.90
28947;DHT22;16052;50.930;5.326;2023-05-20T07:21:27;17.00;99.90
28947;DHT22;16052;50.930;5.326;2023-05-20T07:23:53;17.10;99.90
28947;DHT22;16052;50.930;5.326;2023-05-20T07:26:18;17.10;99.90
28947;DHT22;16052;50.930;5.326;2023-05-20T07:28:44;17.20;99.90
28947;DHT22;16052;50.930;5.326;2023-05-20T07:31:11;17.10;99.90
28947;DHT22;16052;50.930;5.326;2023-05-20T07:33:39;17.10;99.90
28947;DHT22;16052;50.930;5.326;2023-05-20T07:36:05;17.20;99.90
28947;DHT22;16052;50.930;5.326;2023-05-20T07:38:31;17.30;99.90
28947;DHT22;16052;50.930;5.326;2023-05-20T07:40:57;17.30;99.90
28947;DHT22;16052;50.930;5.326;2023-05-20T07:43:22;17.20;99.90
28947;DHT22;16052;50.930;5.326;2023-05-20T07:45:48;17.40;99.90
28947;DHT22;16052;50.930;5.326;2023-05-20T07:48:14;17.40;99.90
28947;DHT22;16052;50.930;5.326;2023-05-20T07:50:40;17.60;99.90
28947;DHT22;16052;50.930;5.326;2023-05-20T07:53:06;17.50;99.90
28947;DHT22;16052;50.930;5.326;2023-05-20T07:55:34;17.40;99.90
28947;DHT22;16052;50.930;5.326;2023-05-20T07:58:03;17.50;99.90
28947;DHT22;16052;50.930;5.326;2023-05-20T08:00:29;17.50;99.90
28947;DHT22;16052;50.930;5.326;2023-05-20T08:02:55;17.60;99.90
28947;DHT22;16052;50.930;5.326;2023-05-20T08:05:21;17.70;99.90
28947;DHT22;16052;50.930;5.326;2023-05-20T08:07:47;17.70;99.90
28947;DHT22;16052;50.930;5.326;2023-05-20T08:10:13;17.80;99.90
28947;DHT22;16052;50.930;5.326;2023-05-20T08:12:38;17.90;99.90
28947;DHT22;16052;50.930;5.326;2023-05-20T08:15:04;18.10;99.90
28947;DHT22;16052;50.930;5.326;2023-05-20T08:17:31;18.20;99.90
28947;DHT22;16052;50.930;5.326;2023-05-20T08:19:58;18.20;99.90
28947;DHT22;16052;50.930;5.326;2023-05-20T08:22:23;18.20;99.90
28947;DHT22;16052;50.930;5.326;2023-05-20T08:24:49;18.20;99.90
28947;DHT22;16052;50.930;5.326;2023-05-20T08:27:14;18.30;99.90
28947;DHT22;16052;50.930;5.326;2023-05-20T08:29:40;18.30;99.90
28947;DHT22;16052;50.930;5.326;2023-05-20T08:32:06;18.40;99.90
28947;DHT22;16052;50.930;5.326;2023-05-20T08:34:32;18.30;99.90
28947;DHT22;16052;50.930;5.326;2023-05-20T08:36:57;18.50;99.90
28947;DHT22;16052;50.930;5.326;2023-05-20T08:39:24;18.60;99.90
28947;DHT22;16052;50.930;5.326;2023-05-20T08:41:50;18.60;99.90
28947;DHT22;16052;50.930;5.326;2023-05-20T08:44:17;18.70;99.90
28947;DHT22;16052;50.930;5.326;2023-05-20T08:46:44;18.70;99.90
28947;DHT22;16052;50.930;5.326;2023-05-20T08:49:10;18.90;99.90
28947;DHT22;16052;50.930;5.326;2023-05-20T08:51:38;18.90;99.90
28947;DHT22;16052;50.930;5.326;2023-05-20T08:54:05;18.90;99.90
28947;DHT22;16052;50.930;5.326;2023-05-20T08:56:33;19.00;99.90
28947;DHT22;16052;50.930;5.326;2023-05-20T08:59:00;19.00;99.90
28947;DHT22;16052;50.930;5.326;2023-05-20T09:01:25;19.10;99.90
28947;DHT22;16052;50.930;5.326;2023-05-20T09:03:51;19.30;99.90
28947;DHT22;16052;50.930;5.326;2023-05-20T09:06:17;19.40;99.90
28947;DHT22;16052;50.930;5.326;2023-05-20T09:08:45;19.50;99.90
28947;DHT22;16052;50.930;5.326;2023-05-20T09:11:11;19.60;99.90
28947;DHT22;16052;50.930;5.326;2023-05-20T09:13:37;19.60;99.90
28947;DHT22;16052;50.930;5.326;2023-05-20T09:16:04;19.70;99.90
28947;DHT22;16052;50.930;5.326;2023-05-20T09:18:30;19.70;99.90
28947;DHT22;16052;50.930;5.326;2023-05-20T09:20:56;19.80;99.90
28947;DHT22;16052;50.930;5.326;2023-05-20T09:23:22;19.80;99.90
28947;DHT22;16052;50.930;5.326;2023-05-20T09:25:50;19.80;99.90
28947;DHT22;16052;50.930;5.326;2023-05-20T09:28:18;19.80;99.90
28947;DHT22;16052;50.930;5.326;2023-05-20T09:30:47;19.90;99.90
28947;DHT22;16052;50.930;5.326;2023-05-20T09:33:13;19.80;99.90
28947;DHT22;16052;50.930;5.326;2023-05-20T09:35:38;19.80;99.90
28947;DHT22;16052;50.930;5.326;2023-05-20T09:38:05;19.80;99.90
28947;DHT22;16052;50.930;5.326;2023-05-20T09:40:34;19.80;99.90
28947;DHT22;16052;50.930;5.326;2023-05-20T09:43:06;19.90;99.90
28947;DHT22;16052;50.930;5.326;2023-05-20T09:45:32;20.10;99.90
28947;DHT22;16052;50.930;5.326;2023-05-20T09:47:59;20.00;99.90
28947;DHT22;16052;50.930;5.326;2023-05-20T09:50:26;20.10;99.90
28947;DHT22;16052;50.930;5.326;2023-05-20T09:52:53;20.10;99.90
28947;DHT22;16052;50.930;5.326;2023-05-20T09:55:23;20.10;99.90
28947;DHT22;16052;50.930;5.326;2023-05-20T09:57:48;20.10;99.90
28947;DHT22;16052;50.930;5.326;2023-05-20T10:00:15;20.10;99.90
28947;DHT22;16052;50.930;5.326;2023-05-20T10:02:46;20.10;99.90
28947;DHT22;16052;50.930;5.326;2023-05-20T10:05:40;20.30;99.90
28947;DHT22;16052;50.930;5.326;2023-05-20T10:10:57;20.60;99.90
28947;DHT22;16052;50.930;5.326;2023-05-20T10:16:28;20.70;99.90
28947;DHT22;16052;50.930;5.326;2023-05-20T10:19:29;20.60;99.90
28947;DHT22;16052;50.930;5.326;2023-05-20T10:22:07;20.60;99.90
28947;DHT22;16052;50.930;5.326;2023-05-20T10:24:35;20.70;99.90
28947;DHT22;16052;50.930;5.326;2023-05-20T10:27:04;20.80;99.90
28947;DHT22;16052;50.930;5.326;2023-05-20T10:32:22;20.90;99.90
28947;DHT22;16052;50.930;5.326;2023-05-20T10:34:48;21.00;99.90
28947;DHT22;16052;50.930;5.326;2023-05-20T10:37:29;21.00;99.90
28947;DHT22;16052;50.930;5.326;2023-05-20T10:40:14;21.10;99.90
28947;DHT22;16052;50.930;5.326;2023-05-20T10:42:40;21.20;99.90
28947;DHT22;16052;50.930;5.326;2023-05-20T10:45:07;21.30;99.90
28947;DHT22;16052;50.930;5.326;2023-05-20T10:47:34;21.40;99.90
28947;DHT22;16052;50.930;5.326;2023-05-20T10:50:00;21.40;99.90
28947;DHT22;16052;50.930;5.326;2023-05-20T10:52:38;21.50;99.90
28947;DHT22;16052;50.930;5.326;2023-05-20T10:55:05;21.40;99.90
28947;DHT22;16052;50.930;5.326;2023-05-20T10:57:33;21.50;99.90
28947;DHT22;16052;50.930;5.326;2023-05-20T10:59:58;21.60;99.90
28947;DHT22;16052;50.930;5.326;2023-05-20T11:02:26;21.70;99.90
28947;DHT22;16052;50.930;5.326;2023-05-20T11:04:55;21.80;99.90
28947;DHT22;16052;50.930;5.326;2023-05-20T11:07:27;21.90;99.90
28947;DHT22;16052;50.930;5.326;2023-05-20T11:09:57;21.90;99.90
28947;DHT22;16052;50.930;5.326;2023-05-20T11:12:24;21.90;99.90
28947;DHT22;16052;50.930;5.326;2023-05-20T11:14:51;22.00;99.90
28947;DHT22;16052;50.930;5.326;2023-05-20T11:17:17;22.10;99.90
28947;DHT22;16052;50.930;5.326;2023-05-20T11:19:44;22.20;99.90
28947;DHT22;16052;50.930;5.326;2023-05-20T11:22:10;22.20;99.90
28947;DHT22;16052;50.930;5.326;2023-05-20T11:24:36;22.00;99.90
28947;DHT22;16052;50.930;5.326;2023-05-20T11:27:03;22.00;99.90
28947;DHT22;16052;50.930;5.326;2023-05-20T11:29:29;22.00;99.90
28947;DHT22;16052;50.930;5.326;2023-05-20T11:31:57;22.10;99.90
28947;DHT22;16052;50.930;5.326;2023-05-20T11:34:23;22.30;99.90
28947;DHT22;16052;50.930;5.326;2023-05-20T11:36:56;22.40;99.90
28947;DHT22;16052;50.930;5.326;2023-05-20T11:39:22;22.40;99.90
28947;DHT22;16052;50.930;5.326;2023-05-20T11:41:47;22.40;99.90
28947;DHT22;16052;50.930;5.326;2023-05-20T11:44:13;22.40;99.90
28947;DHT22;16052;50.930;5.326;2023-05-20T11:46:42;22.40;99.90
28947;DHT22;16052;50.930;5.326;2023-05-20T11:49:09;22.40;99.90
28947;DHT22;16052;50.930;5.326;2023-05-20T11:51:36;22.60;99.90
28947;DHT22;16052;50.930;5.326;2023-05-20T11:54:05;22.50;99.90
28947;DHT22;16052;50.930;5.326;2023-05-20T11:56:38;22.50;99.90
28947;DHT22;16052;50.930;5.326;2023-05-20T11:59:07;22.60;99.90
28947;DHT22;16052;50.930;5.326;2023-05-20T12:01:36;22.70;99.90
28947;DHT22;16052;50.930;5.326;2023-05-20T12:04:03;22.80;99.90
28947;DHT22;16052;50.930;5.326;2023-05-20T12:06:30;22.80;99.90
28947;DHT22;16052;50.930;5.326;2023-05-20T12:08:57;22.80;99.90
28947;DHT22;16052;50.930;5.326;2023-05-20T12:11:23;22.80;99.90
28947;DHT22;16052;50.930;5.326;2023-05-20T12:13:48;22.90;99.90
28947;DHT22;16052;50.930;5.326;2023-05-20T12:16:14;23.00;99.90
28947;DHT22;16052;50.930;5.326;2023-05-20T12:18:40;23.00;99.90
28947;DHT22;16052;50.930;5.326;2023-05-20T12:21:06;23.20;99.90
28947;DHT22;16052;50.930;5.326;2023-05-20T12:23:31;23.40;99.90
28947;DHT22;16052;50.930;5.326;2023-05-20T12:25:58;23.30;99.90
28947;DHT22;16052;50.930;5.326;2023-05-20T12:28:24;23.30;99.90
28947;DHT22;16052;50.930;5.326;2023-05-20T12:30:50;23.00;99.90
28947;DHT22;16052;50.930;5.326;2023-05-20T12:33:16;22.80;99.90
28947;DHT22;16052;50.930;5.326;2023-05-20T12:35:42;22.90;99.90
28947;DHT22;16052;50.930;5.326;2023-05-20T12:38:08;23.00;99.90
28947;DHT22;16052;50.930;5.326;2023-05-20T12:40:35;23.00;99.90
28947;DHT22;16052;50.930;5.326;2023-05-20T12:43:02;23.10;99.90
28947;DHT22;16052;50.930;5.326;2023-05-20T12:45:28;23.20;99.90
28947;DHT22;16052;50.930;5.326;2023-05-20T12:47:55;23.30;99.90
28947;DHT22;16052;50.930;5.326;2023-05-20T12:50:21;23.20;99.90
28947;DHT22;16052;50.930;5.326;2023-05-20T12:52:47;23.00;99.90
28947;DHT22;16052;50.930;5.326;2023-05-20T12:55:13;22.90;99.90
28947;DHT22;16052;50.930;5.326;2023-05-20T12:57:39;23.00;99.90
28947;DHT22;16052;50.930;5.326;2023-05-20T13:00:07;23.00;99.90
28947;DHT22;16052;50.930;5.326;2023-05-20T13:02:33;23.20;99.90
28947;DHT22;16052;50.930;5.326;2023-05-20T13:04:58;23.20;99.90
28947;DHT22;16052;50.930;5.326;2023-05-20T13:07:24;23.10;99.90
28947;DHT22;16052;50.930;5.326;2023-05-20T13:09:51;23.10;99.90
28947;DHT22;16052;50.930;5.326;2023-05-20T13:12:17;23.00;99.90
28947;DHT22;16052;50.930;5.326;2023-05-20T13:14:43;23.00;99.90
28947;DHT22;16052;50.930;5.326;2023-05-20T13:17:11;22.90;99.90
28947;DHT22;16052;50.930;5.326;2023-05-20T13:19:37;22.90;99.90
28947;DHT22;16052;50.930;5.326;2023-05-20T13:22:03;22.80;99.90
28947;DHT22;16052;50.930;5.326;2023-05-20T13:24:29;22.90;99.90
28947;DHT22;16052;50.930;5.326;2023-05-20T13:26:54;22.80;99.90
28947;DHT22;16052;50.930;5.326;2023-05-20T13:29:20;22.80;99.90
28947;DHT22;16052;50.930;5.326;2023-05-20T13:31:46;22.90;99.90
28947;DHT22;16052;50.930;5.326;2023-05-20T13:34:12;22.90;99.90
28947;DHT22;16052;50.930;5.326;2023-05-20T13:36:38;23.00;99.90
28947;DHT22;16052;50.930;5.326;2023-05-20T13:39:05;23.00;99.90
28947;DHT22;16052;50.930;5.326;2023-05-20T13:41:31;23.20;99.90
28947;DHT22;16052;50.930;5.326;2023-05-20T13:43:57;23.50;99.90
28947;DHT22;16052;50.930;5.326;2023-05-20T13:46:22;23.50;99.90
28947;DHT22;16052;50.930;5.326;2023-05-20T13:48:48;23.50;99.90
28947;DHT22;16052;50.930;5.326;2023-05-20T13:51:14;23.40;99.90
28947;DHT22;16052;50.930;5.326;2023-05-20T13:53:39;23.50;99.90
28947;DHT22;16052;50.930;5.326;2023-05-20T13:56:05;23.50;99.90
28947;DHT22;16052;50.930;5.326;2023-05-20T13:58:34;23.40;99.90
28947;DHT22;16052;50.930;5.326;2023-05-20T14:01:00;23.50;99.90
28947;DHT22;16052;50.930;5.326;2023-05-20T14:03:26;23.50;99.90
28947;DHT22;16052;50.930;5.326;2023-05-20T14:05:51;23.60;99.90
28947;DHT22;16052;50.930;5.326;2023-05-20T14:08:17;23.70;99.90
28947;DHT22;16052;50.930;5.326;2023-05-20T14:10:43;23.80;99.90
28947;DHT22;16052;50.930;5.326;2023-05-20T14:13:08;23.80;99.90
28947;DHT22;16052;50.930;5.326;2023-05-20T14:15:35;23.80;99.90
28947;DHT22;16052;50.930;5.326;2023-05-20T14:18:01;23.60;99.90
28947;DHT22;16052;50.930;5.326;2023-05-20T14:20:26;23.50;99.90
28947;DHT22;16052;50.930;5.326;2023-05-20T14:22:52;23.50;99.90
28947;DHT22;16052;50.930;5.326;2023-05-20T14:25:18;23.50;99.90
28947;DHT22;16052;50.930;5.326;2023-05-20T14:27:43;23.50;99.90
28947;DHT22;16052;50.930;5.326;2023-05-20T14:30:09;23.60;99.90
28947;DHT22;16052;50.930;5.326;2023-05-20T14:32:36;23.70;99.90
28947;DHT22;16052;50.930;5.326;2023-05-20T14:35:02;23.70;99.90
28947;DHT22;16052;50.930;5.326;2023-05-20T14:37:28;23.70;99.90
28947;DHT22;16052;50.930;5.326;2023-05-20T14:39:54;23.70;99.90
28947;DHT22;16052;50.930;5.326;2023-05-20T14:42:20;23.60;99.90
28947;DHT22;16052;50.930;5.326;2023-05-20T14:44:46;23.40;99.90
28947;DHT22;16052;50.930;5.326;2023-05-20T14:47:12;23.20;99.90
28947;DHT22;16052;50.930;5.326;2023-05-20T14:49:41;23.10;99.90
28947;DHT22;16052;50.930;5.326;2023-05-20T14:52:08;23.30;99.90
28947;DHT22;16052;50.930;5.326;2023-05-20T14:54:34;23.30;99.90
28947;DHT22;16052;50.930;5.326;2023-05-20T14:57:01;23.30;99.90
28947;DHT22;16052;50.930;5.326;2023-05-20T14:59:29;23.40;99.90
28947;DHT22;16052;50.930;5.326;2023-05-20T15:01:54;23.50;99.90
28947;DHT22;16052;50.930;5.326;2023-05-20T15:04:20;23.50;99.90
28947;DHT22;16052;50.930;5.326;2023-05-20T15:06:46;23.60;99.90
28947;DHT22;16052;50.930;5.326;2023-05-20T15:09:12;23.50;99.90
28947;DHT22;16052;50.930;5.326;2023-05-20T15:11:37;23.50;99.90
28947;DHT22;16052;50.930;5.326;2023-05-20T15:14:03;23.50;99.90
28947;DHT22;16052;50.930;5.326;2023-05-20T15:16:29;23.50;99.90
28947;DHT22;16052;50.930;5.326;2023-05-20T15:18:55;23.40;99.90
28947;DHT22;16052;50.930;5.326;2023-05-20T15:21:20;23.40;99.90
28947;DHT22;16052;50.930;5.326;2023-05-20T15:23:46;23.60;99.90
28947;DHT22;16052;50.930;5.326;2023-05-20T15:26:12;23.60;99.90
28947;DHT22;16052;50.930;5.326;2023-05-20T15:28:38;23.60;99.90
28947;DHT22;16052;50.930;5.326;2023-05-20T15:31:07;23.50;99.90
28947;DHT22;16052;50.930;5.326;2023-05-20T15:33:33;23.50;99.90
28947;DHT22;16052;50.930;5.326;2023-05-20T15:35:59;23.50;99.90